Flugplatz Schweighofen

Für EDRO sind keine METAR/TAF Berichte vorhanden.
Es werden die Flugwettermeldungen vom Flugplatz Karlsruhe Baden-Baden in 28 km Entfernung angezeigt.

Bericht für EDSB

vom 21.07. um 20:50 UTC

variable Windrichtung mit 2 kt

Sichtweite 10 km oder mehr

gute Sicht, keine Wolken < 5000 ft, keine CB, keine Wettererscheinungen (CAVOK)

Temperatur 21.0°C

Taupunkt 17.0°C

Luftfeuchtigkeit 78%

Luftdruck 1022 hPa

EDSB 212050Z VRB02KT CAVOK 21/17 Q1022

Prognose für EDSB

vom 21.07. um 00:00 UTC

Zwischen 00:00 UTC und 00:00 UTC

variable Windrichtung mit 2 kt

Sichtweite 10 km oder mehr

keine signifikanten Wettererscheinungen

keine Wolken


Am 22.07. zwischen 00:00 UTC und 00:00 UTC zeitweise

Wind 5 kt aus 20°

TAF EDSB 211700Z 2118/2218 VRB02KT CAVOK TEMPO 2212/2217 02005KT
Impressum